Time;durP1;ratioP1;P1;durP2;ratioP2;P2;SDS_P1;SDS_P2;PMS_P1;PMS_P2;Temp;Humidity;BMP_temperature;BMP_pressure;BME280_temperature;BME280_humidity;BME280_pressure;Samples;Min_cycle;Max_cycle;Signal;HPM_P1;HPM_P2
2022/11/17 00:02:22;;;;;;;2.00;1.80;;;;;;;1.67;99.33;97189.42;102553;1291;22609;-71
2022/11/17 00:04:49;;;;;;;2.40;1.80;;;;;;;1.67;99.38;97188.47;102945;1304;22690;-71
2022/11/17 00:07:16;;;;;;;3.60;2.00;;;;;;;1.66;99.28;97188.02;102893;1294;137980;-71
2022/11/17 00:09:43;;;;;;;2.20;2.00;;;;;;;1.66;99.35;97184.95;102978;1288;22482;-72
2022/11/17 00:14:56;;;;;;;3.40;1.90;;;;;;;1.67;99.58;97183.09;102940;1287;25474;-72
2022/11/17 00:17:23;;;;;;;2.90;1.90;;;;;;;1.68;99.81;97183.42;102868;1296;25354;-71
2022/11/17 00:22:35;;;;;;;2.60;1.90;;;;;;;1.75;99.93;97197.79;102992;1281;22495;-72
2022/11/17 00:25:02;;;;;;;2.10;1.90;;;;;;;1.74;99.88;97200.30;102808;1288;137749;-72
2022/11/17 00:27:29;;;;;;;2.70;2.10;;;;;;;1.77;99.93;97199.80;102863;1312;22558;-71
2022/11/17 00:29:56;;;;;;;3.50;2.00;;;;;;;1.77;99.86;97198.83;102832;1306;139499;-71
2022/11/17 00:35:09;;;;;;;2.40;1.90;;;;;;;1.79;99.80;97200.67;103010;1300;22480;-71
2022/11/17 00:38:14;;;;;;;2.80;2.40;;;;;;;1.78;99.75;97203.37;102762;1307;137779;-71
2022/11/17 00:40:25;;;;;;;2.30;2.10;;;;;;;1.78;99.69;97211.09;102911;1311;22552;-71
2022/11/17 00:42:52;;;;;;;3.70;2.00;;;;;;;1.78;99.76;97215.14;102849;1290;138377;-71
2022/11/17 00:45:19;;;;;;;2.60;2.30;;;;;;;1.79;99.82;97215.90;103002;1288;22508;-72
2022/11/17 00:47:47;;;;;;;2.40;1.90;;;;;;;1.80;99.82;97217.11;102921;1307;22621;-71
2022/11/17 00:50:14;;;;;;;2.30;1.80;;;;;;;1.80;99.86;97216.33;103107;1305;22533;-72
2022/11/17 00:52:41;;;;;;;2.40;1.80;;;;;;;1.81;99.85;97215.85;103020;1288;25335;-71
2022/11/17 00:55:08;;;;;;;1.60;1.50;;;;;;;1.81;99.76;97215.48;102902;1289;137790;-71
2022/11/17 00:57:35;;;;;;;1.80;1.60;;;;;;;1.79;99.71;97213.02;102963;1282;22589;-72
2022/11/17 01:00:02;;;;;;;1.90;1.80;;;;;;;1.78;99.68;97207.48;102772;1312;138141;-71
2022/11/17 01:02:29;;;;;;;2.40;1.60;;;;;;;1.78;99.69;97204.85;102954;1300;23972;-71
2022/11/17 01:04:56;;;;;;;2.00;1.60;;;;;;;1.77;99.72;97205.31;103003;1304;24250;-72
2022/11/17 01:07:23;;;;;;;2.00;1.70;;;;;;;1.76;99.85;97202.52;102828;1291;137845;-72
2022/11/17 01:09:50;;;;;;;2.10;1.90;;;;;;;1.77;99.96;97201.85;102937;1294;25255;-71
2022/11/17 01:12:20;;;;;;;2.60;1.90;;;;;;;1.79;99.98;97199.73;102914;1291;139035;-71
2022/11/17 01:14:46;;;;;;;2.70;2.00;;;;;;;1.79;99.98;97199.84;102919;1281;26647;-71
2022/11/17 01:17:13;;;;;;;2.70;2.10;;;;;;;1.79;99.94;97198.60;102983;1312;22481;-71
2022/11/17 01:19:40;;;;;;;2.60;1.90;;;;;;;1.79;99.93;97196.09;103019;1312;138311;-72
2022/11/17 01:22:07;;;;;;;1.90;1.80;;;;;;;1.78;99.99;97197.45;102908;1304;22481;-71
2022/11/17 01:24:34;;;;;;;2.90;1.80;;;;;;;1.77;99.94;97189.54;102878;1312;138010;-71
2022/11/17 01:27:01;;;;;;;2.40;1.80;;;;;;;1.76;99.91;97186.23;102929;1304;25221;-71
2022/11/17 01:29:28;;;;;;;2.20;1.50;;;;;;;1.76;99.99;97177.48;102917;1298;25289;-71
2022/11/17 01:31:57;;;;;;;1.90;1.60;;;;;;;1.76;99.98;97169.69;102941;1288;137773;-71
2022/11/17 01:34:24;;;;;;;1.50;1.20;;;;;;;1.76;100.00;97171.66;102948;1298;22491;-71
2022/11/17 01:39:37;;;;;;;1.40;1.30;;;;;;;1.73;99.98;97177.11;102955;1289;24360;-71
2022/11/17 01:42:12;;;;;;;1.80;1.50;;;;;;;1.74;100.00;97176.45;102900;1298;138107;-71
2022/11/17 01:44:57;;;;;;;1.80;1.50;;;;;;;1.74;100.00;97176.45;102940;1289;22522;-71
2022/11/17 01:47:36;;;;;;;2.50;1.30;;;;;;;1.73;100.00;97179.59;102995;1301;23093;-71
2022/11/17 01:50:39;;;;;;;1.30;1.20;;;;;;;1.73;100.00;97184.47;102885;1288;137991;-71
2022/11/17 01:53:10;;;;;;;1.70;1.30;;;;;;;1.73;100.00;97177.65;102990;1302;25231;-71
2022/11/17 01:55:45;;;;;;;1.50;1.30;;;;;;;1.72;100.00;97175.39;103064;1289;138401;-71
2022/11/17 01:58:18;;;;;;;2.10;1.50;;;;;;;1.73;100.00;97178.89;102982;1295;22523;-71
2022/11/17 02:00:45;;;;;;;1.50;1.40;;;;;;;1.74;100.00;97181.19;102859;1310;139424;-71
2022/11/17 02:03:12;;;;;;;2.50;1.20;;;;;;;1.76;100.00;97186.38;103040;1304;22468;-71
2022/11/17 02:06:23;;;;;;;1.60;1.40;;;;;;;1.75;100.00;97192.20;102937;1290;22534;-71
2022/11/17 02:08:52;;;;;;;1.60;1.50;;;;;;;1.76;100.00;97193.47;102412;1318;22493;-72
2022/11/17 02:11:20;;;;;;;2.00;1.20;;;;;;;1.75;100.00;97184.15;102332;1296;22504;-71
2022/11/17 02:13:50;;;;;;;1.40;1.20;;;;;;;1.75;100.00;97179.38;101723;1319;138407;-71
2022/11/17 02:16:17;;;;;;;1.90;1.50;;;;;;;1.73;100.00;97176.69;101910;1293;22495;-72
2022/11/17 02:18:46;;;;;;;1.40;1.30;;;;;;;1.72;99.96;97187.57;101907;1316;137967;-71
2022/11/17 02:21:38;;;;;;;1.20;1.10;;;;;;;1.71;100.00;97194.09;102003;1297;22517;-71
2022/11/17 02:24:41;;;;;;;1.90;1.20;;;;;;;1.74;100.00;97193.45;101750;1321;138717;-71
2022/11/17 02:27:59;;;;;;;2.00;1.20;;;;;;;1.74;100.00;97189.33;101917;1303;25388;-71
2022/11/17 02:30:37;;;;;;;1.40;1.30;;;;;;;1.72;99.98;97184.05;101306;1327;138253;-71
2022/11/17 02:33:22;;;;;;;2.00;1.60;;;;;;;1.69;99.98;97184.45;101543;1306;23252;-71
2022/11/17 02:36:06;;;;;;;1.40;1.20;;;;;;;1.68;100.00;97174.89;101544;1318;24346;-71
2022/11/17 02:39:10;;;;;;;1.40;1.30;;;;;;;1.67;100.00;97167.21;101648;1303;22517;-71
2022/11/17 02:42:06;;;;;;;1.20;1.00;;;;;;;1.66;100.00;97164.28;102169;1296;22508;-71
2022/11/17 02:44:57;;;;;;;1.00;1.00;;;;;;;1.65;100.00;97152.08;102106;1295;25223;-71
2022/11/17 02:47:30;;;;;;;1.20;1.10;;;;;;;1.65;100.00;97149.45;102214;1310;24407;-71
2022/11/17 02:50:05;;;;;;;1.30;1.20;;;;;;;1.65;100.00;97146.34;102099;1313;139648;-71
2022/11/17 02:52:32;;;;;;;0.90;0.80;;;;;;;1.64;99.96;97147.91;102214;1290;25342;-71
2022/11/17 02:55:01;;;;;;;1.20;1.10;;;;;;;1.63;99.97;97154.66;102024;1304;139434;-71
2022/11/17 02:57:37;;;;;;;1.10;1.00;;;;;;;1.62;99.98;97153.67;102085;1304;24265;-71
2022/11/17 03:00:08;;;;;;;1.00;0.90;;;;;;;1.62;99.81;97150.95;102151;1313;22502;-71
2022/11/17 03:03:13;;;;;;;1.00;0.90;;;;;;;1.59;99.83;97150.55;102238;1297;24482;-71
2022/11/17 03:06:07;;;;;;;1.20;1.10;;;;;;;1.57;99.90;97161.14;101570;1302;22631;-71
2022/11/17 03:08:50;;;;;;;0.90;0.80;;;;;;;1.56;99.99;97171.77;102272;1300;23891;-71
2022/11/17 03:11:27;;;;;;;1.80;1.20;;;;;;;1.55;99.93;97181.22;102246;1318;23437;-71
2022/11/17 03:14:16;;;;;;;1.20;1.10;;;;;;;1.55;100.00;97180.20;102232;1309;138006;-71
2022/11/17 03:17:04;;;;;;;1.10;1.00;;;;;;;1.55;100.00;97176.02;102330;1312;25224;-71
2022/11/17 03:19:40;;;;;;;1.10;1.00;;;;;;;1.54;99.98;97169.59;101719;1294;137990;-72
2022/11/17 03:22:16;;;;;;;1.80;1.60;;;;;;;1.55;100.00;97180.77;102404;1318;22499;-71
2022/11/17 03:24:59;;;;;;;1.10;1.00;;;;;;;1.55;100.00;97182.91;102270;1311;138317;-71
2022/11/17 03:27:31;;;;;;;1.40;1.10;;;;;;;1.57;100.00;97188.21;102376;1309;22482;-71
2022/11/17 03:30:01;;;;;;;1.90;1.30;;;;;;;1.59;100.00;97182.96;102375;1310;25390;-71
2022/11/17 03:32:35;;;;;;;1.30;1.20;;;;;;;1.61;100.00;97179.12;102280;1315;138565;-71
2022/11/17 03:35:09;;;;;;;1.30;1.20;;;;;;;1.63;100.00;97180.45;102345;1304;22503;-71
2022/11/17 03:37:40;;;;;;;1.20;1.10;;;;;;;1.65;100.00;97178.87;102251;1295;138134;-71
2022/11/17 03:40:11;;;;;;;1.30;1.10;;;;;;;1.66;100.00;97177.54;102697;1295;24260;-71
2022/11/17 03:42:44;;;;;;;1.30;1.20;;;;;;;1.67;100.00;97179.14;102740;1300;138982;-71
2022/11/17 03:45:17;;;;;;;2.00;1.40;;;;;;;1.67;100.00;97176.58;102996;1298;25234;-71
2022/11/17 03:47:45;;;;;;;1.20;0.90;;;;;;;1.68;100.00;97177.35;102971;1304;25226;-72
2022/11/17 03:50:20;;;;;;;1.60;1.20;;;;;;;1.71;100.00;97175.52;102929;1281;138231;-71
2022/11/17 03:52:48;;;;;;;1.10;1.00;;;;;;;1.73;100.00;97182.76;102939;1303;25188;-71
2022/11/17 03:55:15;;;;;;;1.90;1.20;;;;;;;1.74;100.00;97183.50;102861;1289;138688;-71
2022/11/17 03:57:54;;;;;;;1.20;1.10;;;;;;;1.75;100.00;97184.58;102993;1297;26128;-72
2022/11/17 04:00:21;;;;;;;1.40;1.20;;;;;;;1.75;100.00;97185.27;102851;1298;138686;-72
2022/11/17 04:02:54;;;;;;;1.20;1.00;;;;;;;1.75;100.00;97185.35;102978;1298;23879;-71
2022/11/17 04:05:21;;;;;;;1.70;0.80;;;;;;;1.76;100.00;97179.98;103124;1294;22498;-71
2022/11/17 04:07:48;;;;;;;0.70;0.70;;;;;;;1.77;100.00;97178.81;102931;1310;138038;-71
2022/11/17 04:10:20;;;;;;;0.80;0.80;;;;;;;1.78;100.00;97179.42;103029;1303;22524;-71
2022/11/17 04:18:20;;;;;;;1.20;1.10;;;;;;;1.79;100.00;97183.61;102817;1312;138140;-71
2022/11/17 04:20:56;;;;;;;1.10;1.00;;;;;;;1.78;100.00;97175.66;103039;1288;22495;-71
2022/11/17 04:23:23;;;;;;;1.70;1.10;;;;;;;1.79;100.00;97176.88;102972;1284;22579;-72
2022/11/17 04:28:43;;;;;;;0.90;0.90;;;;;;;1.79;100.00;97179.08;103107;1291;22488;-71
2022/11/17 04:31:31;;;;;;;1.10;0.90;;;;;;;1.79;100.00;97186.31;102821;1281;138351;-71
2022/11/17 04:33:59;;;;;;;1.90;1.00;;;;;;;1.77;100.00;97193.80;102949;1313;23883;-71
2022/11/17 04:36:29;;;;;;;1.20;1.10;;;;;;;1.78;100.00;97192.14;102955;1304;139668;-71
2022/11/17 04:38:58;;;;;;;1.00;0.90;;;;;;;1.79;100.00;97192.54;102959;1290;25293;-72
2022/11/17 04:44:15;;;;;;;1.50;1.30;;;;;;;1.79;100.00;97196.16;102796;1312;137922;-71
2022/11/17 04:46:45;;;;;;;1.10;0.90;;;;;;;1.80;100.00;97190.17;103023;1313;22501;-71
2022/11/17 04:49:17;;;;;;;1.00;1.00;;;;;;;1.79;100.00;97188.46;102861;1298;139682;-71
2022/11/17 04:51:44;;;;;;;1.70;1.10;;;;;;;1.79;100.00;97186.60;103010;1287;25476;-72
2022/11/17 04:54:13;;;;;;;0.90;0.80;;;;;;;1.78;100.00;97189.81;102970;1289;22548;-71
2022/11/17 04:56:40;;;;;;;1.70;0.90;;;;;;;1.76;100.00;97188.32;102990;1289;22868;-71
2022/11/17 04:59:08;;;;;;;0.80;0.80;;;;;;;1.75;100.00;97190.44;102994;1291;23887;-72
2022/11/17 05:01:35;;;;;;;1.20;1.10;;;;;;;1.71;100.00;97192.20;102786;1288;138041;-71
2022/11/17 05:04:08;;;;;;;0.90;0.90;;;;;;;1.66;100.00;97191.20;102962;1290;24345;-72
2022/11/17 05:06:36;;;;;;;1.10;0.90;;;;;;;1.65;100.00;97193.90;102913;1294;138093;-71
2022/11/17 05:09:09;;;;;;;0.80;0.80;;;;;;;1.63;99.98;97192.71;103023;1288;24192;-72
2022/11/17 05:14:23;;;;;;;0.80;0.80;;;;;;;1.61;100.00;97192.33;102818;1303;138603;-72
2022/11/17 05:17:08;;;;;;;1.20;0.80;;;;;;;1.61;100.00;97194.73;102944;1297;25342;-72
2022/11/17 05:19:37;;;;;;;0.80;0.80;;;;;;;1.58;99.97;97195.16;102916;1287;137929;-72
2022/11/17 05:24:54;;;;;;;1.00;0.80;;;;;;;1.55;99.99;97196.50;102824;1289;138162;-72
2022/11/17 05:27:22;;;;;;;0.70;0.60;;;;;;;1.54;100.00;97192.39;103044;1303;24304;-71
2022/11/17 05:29:50;;;;;;;0.90;0.90;;;;;;;1.53;99.97;97193.55;101805;1289;1683723;-72
2022/11/17 05:32:17;;;;;;;0.80;0.80;;;;;;;1.53;100.00;97195.36;103040;1299;138291;-72
2022/11/17 05:34:44;;;;;;;1.20;0.90;;;;;;;1.53;100.00;97195.91;102953;1288;22581;-72
2022/11/17 05:37:11;;;;;;;1.20;0.90;;;;;;;1.53;100.00;97196.89;102950;1295;138262;-72
2022/11/17 05:39:38;;;;;;;1.00;0.90;;;;;;;1.52;100.00;97199.41;102997;1298;24327;-72
2022/11/17 05:42:05;;;;;;;1.10;1.00;;;;;;;1.50;100.00;97202.80;102922;1298;22565;-72
2022/11/17 05:44:31;;;;;;;1.30;1.00;;;;;;;1.50;100.00;97204.25;102801;1305;138433;-71
2022/11/17 05:46:58;;;;;;;1.20;1.00;;;;;;;1.49;100.00;97207.06;102951;1303;23021;-72
2022/11/17 05:49:25;;;;;;;0.90;0.90;;;;;;;1.48;100.00;97210.61;102879;1294;138319;-72
2022/11/17 05:51:52;;;;;;;0.80;0.80;;;;;;;1.47;99.95;97209.02;102901;1304;24357;-72
2022/11/17 05:54:19;;;;;;;1.10;1.00;;;;;;;1.46;99.99;97207.95;103049;1289;138566;-72
2022/11/17 05:56:55;;;;;;;2.10;1.10;;;;;;;1.45;100.00;97207.52;103193;1300;25391;-72
2022/11/17 05:59:33;;;;;;;0.90;0.80;;;;;;;1.43;100.00;97208.31;103105;1288;25659;-71
2022/11/17 06:02:06;;;;;;;1.10;1.00;;;;;;;1.40;99.94;97202.84;103013;1289;137977;-72
2022/11/17 06:04:33;;;;;;;0.60;0.60;;;;;;;1.37;99.93;97202.25;102985;1304;22469;-72
2022/11/17 06:07:01;;;;;;;2.90;0.70;;;;;;;1.34;99.90;97199.63;102845;1313;138167;-72
2022/11/17 06:09:31;;;;;;;0.70;0.70;;;;;;;1.31;99.83;97210.20;103136;1306;22738;-71
2022/11/17 06:11:58;;;;;;;1.10;1.00;;;;;;;1.29;99.74;97224.29;102936;1289;22520;-72
2022/11/17 06:14:25;;;;;;;3.20;1.00;;;;;;;1.27;99.69;97231.10;102931;1294;139143;-72
2022/11/17 06:16:56;;;;;;;1.10;1.00;;;;;;;1.25;99.63;97235.50;102889;1313;24279;-72
2022/11/17 06:19:45;;;;;;;1.60;0.80;;;;;;;1.24;99.52;97239.95;102919;1307;137894;-71
2022/11/17 06:22:12;;;;;;;;;;;;;;;1.21;99.22;97246.48;103162;1306;22478;-72
2022/11/17 06:24:42;;;;;;;0.60;0.60;;;;;;;1.18;99.40;97252.07;103110;1312;124489;-72
2022/11/17 06:27:11;;;;;;;2.20;1.20;;;;;;;1.15;99.47;97250.64;103076;1294;22555;-72
2022/11/17 06:29:38;;;;;;;1.30;1.20;;;;;;;1.11;99.25;97255.65;102970;1289;22619;-72
2022/11/17 06:32:05;;;;;;;1.10;0.90;;;;;;;1.09;99.44;97250.23;103102;1288;137947;-72
2022/11/17 06:34:33;;;;;;;1.60;1.00;;;;;;;1.08;99.49;97250.97;102973;1313;22496;-72
2022/11/17 06:37:00;;;;;;;1.40;1.30;;;;;;;1.05;99.48;97254.70;102841;1288;137908;-71
2022/11/17 06:39:29;;;;;;;;;;;;;;;1.01;99.38;97251.38;102994;1304;25326;-72
2022/11/17 06:41:56;;;;;;;1.90;0.90;;;;;;;1.00;99.39;97250.73;102962;1288;22509;-71
2022/11/17 06:44:23;;;;;;;1.80;1.70;;;;;;;0.98;99.39;97255.11;102924;1312;138150;-72
2022/11/17 06:46:49;;;;;;;1.40;1.30;;;;;;;0.97;99.55;97258.78;102948;1312;22595;-73
2022/11/17 06:49:16;;;;;;;1.20;1.10;;;;;;;0.97;99.51;97264.18;102867;1291;140555;-71
2022/11/17 06:51:43;;;;;;;1.60;1.30;;;;;;;0.97;99.48;97269.54;103217;1290;25345;-72
2022/11/17 06:54:11;;;;;;;1.30;1.00;;;;;;;0.96;99.59;97272.64;103194;1289;25427;-71
2022/11/17 06:56:38;;;;;;;1.70;1.30;;;;;;;0.95;99.65;97270.10;103211;1299;137846;-74
2022/11/17 06:59:07;;;;;;;2.00;1.80;;;;;;;1.12;100.00;97270.55;103060;1307;25301;-72
2022/11/17 07:01:36;;;;;;;2.90;1.40;;;;;;;1.18;99.98;97267.30;103106;1304;139628;-72
2022/11/17 07:04:03;;;;;;;2.10;1.50;;;;;;;1.19;99.61;97268.95;103216;1304;22492;-73
2022/11/17 07:06:30;;;;;;;1.20;1.10;;;;;;;1.18;99.31;97264.52;103002;1313;138800;-72
2022/11/17 07:08:57;;;;;;;1.50;1.40;;;;;;;1.16;99.02;97261.09;103068;1294;25373;-72
2022/11/17 07:11:24;;;;;;;1.50;1.30;;;;;;;1.14;98.84;97261.75;103092;1291;22478;-72
2022/11/17 07:13:51;;;;;;;1.20;1.10;;;;;;;1.11;98.79;97265.52;103122;1281;137960;-72
2022/11/17 07:16:19;;;;;;;1.50;1.40;;;;;;;1.08;98.67;97267.02;103046;1290;22472;-73
2022/11/17 07:18:52;;;;;;;2.20;1.40;;;;;;;1.08;99.02;97266.17;103031;1294;137964;-72
2022/11/17 07:21:21;;;;;;;1.80;1.40;;;;;;;1.17;99.98;97269.77;103022;1298;22602;-72
2022/11/17 07:23:48;;;;;;;1.60;1.50;;;;;;;1.18;99.25;97265.77;103215;1281;23927;-71
2022/11/17 07:26:18;;;;;;;2.50;1.40;;;;;;;1.17;98.83;97266.30;103032;1312;137688;-72
2022/11/17 07:28:46;;;;;;;2.10;1.70;;;;;;;1.15;98.51;97267.89;103126;1290;25308;-72
2022/11/17 07:31:14;;;;;;;2.80;1.70;;;;;;;1.11;98.71;97267.48;102891;1290;137712;-72
2022/11/17 07:33:41;;;;;;;2.20;1.70;;;;;;;1.10;98.71;97268.50;103144;1289;25320;-71
2022/11/17 07:36:11;;;;;;;2.00;1.80;;;;;;;1.08;98.65;97271.02;102953;1305;22472;-72
2022/11/17 07:38:40;;;;;;;2.20;1.70;;;;;;;1.06;98.68;97281.02;102899;1312;138109;-71
2022/11/17 07:41:08;;;;;;;;;;;;;;;1.06;98.81;97284.48;103004;1298;22469;-72
2022/11/17 07:43:36;;;;;;;3.60;2.10;;;;;;;1.04;98.83;97291.70;102877;1299;124285;-72
2022/11/17 07:46:09;;;;;;;2.30;1.60;;;;;;;1.04;99.07;97292.62;103010;1297;23303;-72
2022/11/17 07:48:36;;;;;;;2.00;1.80;;;;;;;1.03;99.00;97294.14;102923;1289;139178;-72
2022/11/17 07:51:04;;;;;;;2.00;1.80;;;;;;;1.05;99.03;97293.18;103104;1293;24351;-72
2022/11/17 07:53:33;;;;;;;2.00;1.90;;;;;;;1.07;99.29;97289.54;103068;1305;23230;-72
2022/11/17 07:56:06;;;;;;;1.80;1.60;;;;;;;1.10;99.14;97291.39;103229;1289;137877;-72
2022/11/17 07:58:32;;;;;;;1.90;1.70;;;;;;;1.12;98.87;97286.84;103121;1288;22488;-72
2022/11/17 08:01:14;;;;;;;2.30;1.90;;;;;;;1.13;98.81;97293.69;103069;1289;138038;-72
2022/11/17 08:03:44;;;;;;;3.00;2.50;;;;;;;1.14;98.82;97294.37;102971;1288;25262;-72
2022/11/17 08:06:11;;;;;;;1.90;1.70;;;;;;;1.16;98.81;97293.12;102960;1297;22488;-72
2022/11/17 08:08:38;;;;;;;2.10;1.70;;;;;;;1.17;98.79;97287.61;103113;1303;22501;-72
2022/11/17 08:11:10;;;;;;;1.70;1.60;;;;;;;1.20;98.87;97290.05;103111;1291;22506;-72
2022/11/17 08:13:39;;;;;;;2.80;2.00;;;;;;;1.22;98.76;97287.33;103017;1311;22479;-71
2022/11/17 08:16:08;;;;;;;2.70;1.90;;;;;;;1.22;98.50;97289.35;103082;1291;22508;-72
2022/11/17 08:18:35;;;;;;;;;;;;;;;1.24;98.60;97283.52;103394;1288;22463;-72
2022/11/17 08:21:07;;;;;;;1.80;1.50;;;;;;;1.24;98.53;97277.70;103113;1295;125118;-72
2022/11/17 08:23:35;;;;;;;1.90;1.80;;;;;;;1.24;98.52;97277.48;102623;1294;1156400;-72
2022/11/17 08:26:03;;;;;;;2.70;2.20;;;;;;;1.26;98.76;97276.30;103026;1306;24314;-72
2022/11/17 08:28:30;;;;;;;1.90;1.80;;;;;;;1.29;99.08;97278.59;103102;1303;22839;-72
2022/11/17 08:31:00;;;;;;;3.10;2.00;;;;;;;1.29;98.77;97278.71;103087;1291;25375;-72
2022/11/17 08:33:27;;;;;;;2.40;2.10;;;;;;;1.30;98.81;97282.95;102907;1305;24275;-73
2022/11/17 08:35:59;;;;;;;2.90;2.10;;;;;;;1.29;98.52;97289.19;102974;1313;24230;-72
2022/11/17 08:38:27;;;;;;;2.30;2.00;;;;;;;1.28;98.50;97290.77;102923;1312;22457;-72
2022/11/17 08:40:56;;;;;;;2.60;2.40;;;;;;;1.25;98.15;97300.59;103145;1301;22504;-72
2022/11/17 08:43:24;;;;;;;2.90;1.80;;;;;;;1.21;97.97;97304.73;102913;1292;22490;-72
2022/11/17 08:45:51;;;;;;;2.40;1.80;;;;;;;1.18;97.88;97304.64;102889;1288;23880;-72
2022/11/17 08:48:24;;;;;;;1.40;1.30;;;;;;;1.17;97.86;97304.96;102840;1313;24320;-72
2022/11/17 08:50:54;;;;;;;3.10;2.00;;;;;;;1.17;98.07;97300.10;102921;1294;22510;-72
2022/11/17 08:53:22;;;;;;;2.40;2.00;;;;;;;1.22;98.38;97298.67;102993;1295;22482;-73
2022/11/17 08:55:50;;;;;;;2.70;2.50;;;;;;;1.27;98.41;97298.73;102908;1313;22479;-72
2022/11/17 08:58:18;;;;;;;3.10;2.10;;;;;;;1.32;98.70;97301.75;103017;1300;22562;-72
2022/11/17 09:00:46;;;;;;;2.30;1.90;;;;;;;1.36;98.52;97306.77;102913;1301;25422;-72
2022/11/17 09:03:13;;;;;;;3.60;2.20;;;;;;;1.37;98.33;97314.11;103088;1303;25537;-72
2022/11/17 09:05:48;;;;;;;2.90;2.30;;;;;;;1.39;98.33;97313.27;103022;1305;22493;-72
2022/11/17 09:08:15;;;;;;;2.20;2.00;;;;;;;1.43;98.34;97312.54;102879;1311;22539;-72
2022/11/17 09:10:43;;;;;;;4.50;2.80;;;;;;;1.47;98.04;97312.98;103015;1313;22520;-72
2022/11/17 09:13:12;;;;;;;2.70;2.20;;;;;;;1.49;98.19;97305.04;103027;1301;25380;-72
2022/11/17 09:15:39;;;;;;;4.10;2.60;;;;;;;1.52;98.12;97303.27;102947;1301;22487;-72
2022/11/17 09:18:06;;;;;;;3.00;2.40;;;;;;;1.55;98.14;97300.55;103355;1313;22568;-72
2022/11/17 09:20:33;;;;;;;5.00;2.40;;;;;;;1.56;98.15;97300.05;103075;1288;30398;-72
2022/11/17 09:23:01;;;;;;;2.20;1.80;;;;;;;1.58;97.89;97298.56;103331;1291;25311;-72
2022/11/17 09:25:28;;;;;;;2.60;2.20;;;;;;;1.58;97.40;97297.02;103239;1306;22665;-72
2022/11/17 09:27:56;;;;;;;2.30;2.10;;;;;;;1.58;97.21;97297.33;102988;1290;22478;-72
2022/11/17 09:30:23;;;;;;;2.40;2.10;;;;;;;1.60;97.03;97297.77;102987;1296;25998;-72
2022/11/17 09:32:51;;;;;;;2.10;1.80;;;;;;;1.62;97.15;97294.98;103218;1295;22495;-71
2022/11/17 09:35:21;;;;;;;3.50;1.80;;;;;;;1.62;97.02;97298.24;103082;1301;22482;-72
2022/11/17 09:37:48;;;;;;;4.50;1.90;;;;;;;1.66;97.02;97302.63;103186;1293;22768;-72
2022/11/17 09:40:18;;;;;;;2.20;1.90;;;;;;;1.66;96.54;97305.39;103060;1288;22508;-72
2022/11/17 09:42:45;;;;;;;2.80;2.10;;;;;;;1.68;96.51;97307.86;103303;1307;22491;-72
2022/11/17 09:45:31;;;;;;;5.00;2.20;;;;;;;1.69;96.45;97305.92;102984;1290;25370;-72
2022/11/17 09:48:13;;;;;;;2.50;2.00;;;;;;;1.70;96.47;97307.48;103177;1295;25630;-72
2022/11/17 09:50:42;;;;;;;2.40;2.00;;;;;;;1.72;96.72;97307.45;103188;1289;25384;-72
2022/11/17 09:53:34;;;;;;;1.80;1.70;;;;;;;1.73;96.47;97306.84;103040;1313;23918;-72
2022/11/17 09:56:07;;;;;;;2.60;2.10;;;;;;;1.69;95.62;97303.40;103195;1306;22496;-72
2022/11/17 09:58:57;;;;;;;3.40;1.90;;;;;;;1.66;95.52;97304.57;103458;1302;25446;-72
2022/11/17 10:01:27;;;;;;;2.60;2.20;;;;;;;1.57;94.96;97309.20;103197;1288;22562;-72
2022/11/17 10:03:57;;;;;;;2.90;2.20;;;;;;;1.52;95.38;97304.74;103164;1297;22483;-72
2022/11/17 10:06:27;;;;;;;1.80;1.70;;;;;;;1.50;95.81;97298.94;103130;1306;22481;-72
2022/11/17 10:09:02;;;;;;;14.00;2.60;;;;;;;1.47;95.38;97301.91;103050;1304;23120;-72
2022/11/17 10:11:37;;;;;;;5.10;2.10;;;;;;;1.43;95.31;97305.77;103538;1307;25216;-72
2022/11/17 10:14:12;;;;;;;2.60;1.90;;;;;;;1.41;95.32;97304.31;102910;1310;22773;-72
2022/11/17 10:16:51;;;;;;;1.90;1.50;;;;;;;1.44;95.75;97303.34;102864;1294;22488;-72
2022/11/17 10:19:29;;;;;;;2.30;1.70;;;;;;;1.47;95.62;97297.91;103276;1298;25287;-72
2022/11/17 10:22:36;;;;;;;3.60;1.90;;;;;;;1.48;95.73;97298.66;103343;1305;25405;-72
2022/11/17 10:25:04;;;;;;;3.30;2.30;;;;;;;1.53;96.14;97301.30;103046;1299;137789;-72
2022/11/17 10:27:33;;;;;;;2.00;1.80;;;;;;;1.59;96.28;97305.77;103001;1289;25663;-72
2022/11/17 10:30:13;;;;;;;2.50;2.30;;;;;;;1.63;96.29;97296.95;102983;1300;138705;-72
2022/11/17 10:32:53;;;;;;;2.80;2.10;;;;;;;1.65;95.83;97295.52;103034;1307;22479;-71
2022/11/17 10:35:34;;;;;;;2.70;1.90;;;;;;;1.66;95.62;97297.17;102951;1294;139086;-71
2022/11/17 10:38:12;;;;;;;5.60;2.50;;;;;;;1.67;95.27;97299.77;103041;1291;25323;-71
2022/11/17 10:40:39;;;;;;;3.50;2.10;;;;;;;1.66;95.15;97298.29;102902;1304;22522;-71
2022/11/17 10:43:11;;;;;;;4.40;2.10;;;;;;;1.66;95.29;97296.84;102876;1298;138012;-71
2022/11/17 10:45:50;;;;;;;4.90;2.40;;;;;;;1.67;95.23;97299.52;103087;1294;138929;-71
2022/11/17 10:48:21;;;;;;;3.00;2.20;;;;;;;1.69;95.14;97298.94;102993;1304;22472;-71
2022/11/17 10:51:02;;;;;;;2.20;2.00;;;;;;;1.71;94.81;97305.98;102902;1290;137980;-71
2022/11/17 10:53:35;;;;;;;2.80;2.10;;;;;;;1.72;95.04;97305.27;103051;1304;22527;-71
2022/11/17 10:56:10;;;;;;;2.70;1.90;;;;;;;1.75;95.18;97309.05;105064;1313;25291;-72
2022/11/17 10:58:57;;;;;;;2.40;2.20;;;;;;;1.85;96.46;97305.02;102943;1288;137677;-72
2022/11/17 11:01:31;;;;;;;2.20;1.90;;;;;;;1.96;95.11;97303.70;102899;1313;22563;-71
2022/11/17 11:03:58;;;;;;;2.90;2.30;;;;;;;1.96;94.19;97304.77;102778;1288;137942;-71
2022/11/17 11:06:30;;;;;;;2.50;2.20;;;;;;;1.94;94.20;97303.27;102949;1303;22474;-72
2022/11/17 11:09:09;;;;;;;2.50;2.00;;;;;;;1.92;93.94;97303.52;102447;1306;137983;-71
2022/11/17 11:11:42;;;;;;;2.80;2.10;;;;;;;1.90;93.67;97300.39;102977;1290;23071;-72
2022/11/17 11:14:35;;;;;;;2.10;1.90;;;;;;;1.88;93.39;97306.27;102835;1303;22493;-71
2022/11/17 11:17:11;;;;;;;2.70;2.30;;;;;;;1.82;92.80;97302.65;102877;1298;22906;-71
2022/11/17 11:19:41;;;;;;;3.10;2.30;;;;;;;1.78;92.79;97305.19;102957;1297;23969;-72
2022/11/17 11:22:44;;;;;;;2.30;1.70;;;;;;;1.74;92.52;97305.34;103044;1291;139424;-71
2022/11/17 11:25:30;;;;;;;4.70;2.50;;;;;;;1.70;92.73;97309.50;103034;1288;22475;-71
2022/11/17 11:28:37;;;;;;;2.50;2.30;;;;;;;1.67;93.14;97309.73;102947;1289;137984;-71
2022/11/17 11:31:27;;;;;;;3.10;2.40;;;;;;;1.68;93.12;97308.48;103269;1301;22351;-72
2022/11/17 11:34:30;;;;;;;2.30;1.90;;;;;;;1.71;93.57;97312.84;103895;1305;137682;-71
2022/11/17 11:37:09;;;;;;;2.80;2.10;;;;;;;1.73;93.50;97314.52;102963;1288;24317;-71
2022/11/17 11:39:57;;;;;;;3.70;2.70;;;;;;;1.73;93.40;97316.05;102910;1303;137777;-71
2022/11/17 11:42:45;;;;;;;4.90;2.70;;;;;;;1.74;93.39;97317.61;103080;1313;22491;-71
2022/11/17 11:45:41;;;;;;;4.60;2.60;;;;;;;1.77;93.43;97315.94;102798;1294;137778;-71
2022/11/17 11:48:15;;;;;;;3.70;2.60;;;;;;;1.78;93.10;97314.31;102982;1298;24250;-71
2022/11/17 11:50:52;;;;;;;4.80;2.50;;;;;;;1.77;93.06;97317.14;102887;1289;138422;-71
2022/11/17 11:53:25;;;;;;;4.00;2.80;;;;;;;1.77;93.16;97318.00;102576;1298;25543;-71
2022/11/17 11:56:10;;;;;;;6.60;3.00;;;;;;;1.79;93.16;97316.48;103010;1295;25370;-71
2022/11/17 11:58:45;;;;;;;3.30;2.40;;;;;;;1.80;93.11;97320.13;102928;1293;137921;-72
2022/11/17 12:01:16;;;;;;;3.30;2.80;;;;;;;1.81;93.36;97320.54;103103;1288;25438;-71
2022/11/17 12:04:13;;;;;;;5.30;2.70;;;;;;;1.82;93.10;97318.20;102877;1301;137877;-71
2022/11/17 12:06:57;;;;;;;3.50;2.40;;;;;;;1.81;92.77;97313.35;102925;1288;22543;-71
2022/11/17 12:09:48;;;;;;;4.50;3.20;;;;;;;1.77;92.22;97308.58;102907;1303;139608;-71
2022/11/17 12:12:26;;;;;;;7.60;3.10;;;;;;;1.75;92.74;97299.02;102954;1288;22910;-72
2022/11/17 12:15:31;;;;;;;4.50;3.10;;;;;;;1.72;92.50;97294.46;102756;1292;137957;-71
2022/11/17 12:18:04;;;;;;;4.90;2.50;;;;;;;1.66;92.17;97294.66;103125;1288;24319;-71
2022/11/17 12:20:39;;;;;;;3.00;2.40;;;;;;;1.62;92.12;97292.70;103043;1288;139065;-72
2022/11/17 12:23:27;;;;;;;4.00;2.30;;;;;;;1.57;92.26;97292.54;103066;1291;23421;-71
2022/11/17 12:25:56;;;;;;;4.20;2.80;;;;;;;1.54;92.17;97293.00;103008;1288;23883;-72